Time;durP1;ratioP1;P1;durP2;ratioP2;P2;SDS_P1;SDS_P2;PMS_P1;PMS_P2;Temp;Humidity;BMP_temperature;BMP_pressure;BME280_temperature;BME280_humidity;BME280_pressure;Samples;Min_cycle;Max_cycle;Signal;HPM_P1;HPM_P2
2022/04/04 00:01:17;;;;;;;11.40;6.03;;;0.30;99.90;;;;;;5053657;28;20025;-70
2022/04/04 00:03:42;;;;;;;11.85;6.55;;;0.30;99.90;;;;;;5053904;28;20067;-70
2022/04/04 00:06:08;;;;;;;11.57;6.85;;;0.30;99.90;;;;;;5053547;28;20052;-70
2022/04/04 00:08:34;;;;;;;13.27;6.22;;;0.30;99.90;;;;;;5052595;28;20479;-68
2022/04/04 00:11:00;;;;;;;10.98;5.90;;;0.20;99.90;;;;;;5053738;28;20424;-68
2022/04/04 00:13:27;;;;;;;13.52;6.20;;;0.20;99.90;;;;;;5053456;28;20483;-70
2022/04/04 00:15:56;;;;;;;12.02;6.38;;;0.20;99.90;;;;;;5053318;28;20386;-69
2022/04/04 00:18:22;;;;;;;13.40;6.43;;;0.30;99.90;;;;;;5053378;28;20483;-69
2022/04/04 00:20:49;;;;;;;10.45;6.57;;;0.30;99.90;;;;;;5053341;28;20048;-70
2022/04/04 00:23:15;;;;;;;10.82;6.40;;;0.30;99.90;;;;;;5053284;28;20052;-69
2022/04/04 00:25:43;;;;;;;13.93;6.60;;;0.10;99.90;;;;;;5053245;28;20021;-70
2022/04/04 00:28:09;;;;;;;10.00;5.45;;;0.10;99.90;;;;;;5053264;28;20025;-70
2022/04/04 00:30:35;;;;;;;8.98;5.70;;;0.10;99.90;;;;;;5053510;28;20022;-70
2022/04/04 00:33:01;;;;;;;15.20;6.22;;;0.10;99.90;;;;;;5053466;28;20025;-69
2022/04/04 00:35:26;;;;;;;9.27;5.88;;;0.10;99.90;;;;;;5053475;28;20031;-68
2022/04/04 00:37:53;;;;;;;10.63;5.65;;;0.00;99.90;;;;;;5053131;28;20024;-69
2022/04/04 00:40:19;;;;;;;11.63;5.50;;;0.00;99.90;;;;;;5053370;28;20036;-69
2022/04/04 00:42:44;;;;;;;10.85;5.82;;;0.00;99.90;;;;;;5053040;28;20033;-70
2022/04/04 00:45:10;;;;;;;8.27;5.38;;;0.00;99.90;;;;;;5052979;28;20040;-69
2022/04/04 00:47:36;;;;;;;11.20;5.93;;;0.00;99.90;;;;;;5053279;28;20036;-69
2022/04/04 00:50:03;;;;;;;12.30;6.60;;;-0.10;99.90;;;;;;5052991;28;20017;-70
2022/04/04 00:52:29;;;;;;;13.10;6.53;;;-0.10;99.90;;;;;;5053295;28;20021;-69
2022/04/04 00:54:55;;;;;;;10.20;5.40;;;-0.10;99.90;;;;;;5052951;28;20585;-69
2022/04/04 00:57:21;;;;;;;8.40;5.40;;;-0.10;99.90;;;;;;5053204;28;20111;-70
2022/04/04 00:59:47;;;;;;;9.95;5.70;;;-0.10;99.90;;;;;;5053169;28;20074;-70
2022/04/04 01:02:13;;;;;;;10.15;5.15;;;-0.20;99.90;;;;;;5052865;28;20078;-69
2022/04/04 01:04:39;;;;;;;11.38;5.00;;;-0.20;99.90;;;;;;5034892;28;20029;-69
2022/04/04 01:07:04;;;;;;;7.80;5.22;;;-0.30;99.90;;;;;;5053131;28;20372;-69
2022/04/04 01:09:31;;;;;;;8.50;5.25;;;-0.20;99.90;;;;;;5053085;28;20021;-68
2022/04/04 01:12:11;;;;;;;9.10;5.18;;;-0.20;99.90;;;;;;5034866;28;20395;-70
2022/04/04 01:14:45;;;;;;;11.95;5.13;;;-0.30;99.90;;;;;;5052715;28;20147;-68
2022/04/04 01:17:11;;;;;;;7.57;4.65;;;-0.40;99.90;;;;;;5053026;28;20068;-68
2022/04/04 01:19:37;;;;;;;8.45;5.13;;;-0.40;99.90;;;;;;5053844;28;20371;-68
2022/04/04 01:22:08;;;;;;;7.45;5.20;;;-0.40;99.90;;;;;;5056919;28;20035;-70
2022/04/04 01:24:34;;;;;;;9.90;5.60;;;-0.40;99.90;;;;;;5056177;28;20502;-70
2022/04/04 01:27:00;;;;;;;10.75;5.35;;;-0.50;99.90;;;;;;5056580;28;20522;-69
2022/04/04 01:29:26;;;;;;;8.75;5.35;;;-0.50;99.90;;;;;;5056489;28;20020;-70
2022/04/04 01:31:52;;;;;;;8.23;5.25;;;-0.50;99.90;;;;;;5056461;28;20025;-69
2022/04/04 01:34:19;;;;;;;9.07;5.50;;;-0.50;99.90;;;;;;5056393;28;20506;-69
2022/04/04 01:36:45;;;;;;;8.00;4.65;;;-0.50;99.90;;;;;;5056401;28;20029;-69
2022/04/04 01:39:10;;;;;;;12.07;5.60;;;-0.50;99.90;;;;;;5056359;28;20441;-68
2022/04/04 01:41:36;;;;;;;8.63;5.43;;;-0.60;99.90;;;;;;5056354;28;20115;-69
2022/04/04 01:44:02;;;;;;;9.35;5.72;;;-0.60;99.90;;;;;;5056248;28;20028;-70
2022/04/04 01:46:28;;;;;;;9.38;6.20;;;-0.60;99.90;;;;;;5056108;28;20033;-69
2022/04/04 01:48:56;;;;;;;11.25;5.97;;;-0.60;99.90;;;;;;5056483;28;20075;-68
2022/04/04 01:51:21;;;;;;;8.60;5.45;;;-0.60;99.90;;;;;;5056095;28;20078;-68
2022/04/04 01:53:48;;;;;;;8.85;6.00;;;-0.70;99.90;;;;;;5056062;28;20029;-69
2022/04/04 01:56:14;;;;;;;8.55;5.25;;;-0.70;99.90;;;;;;5038092;28;20514;-70
2022/04/04 01:58:40;;;;;;;10.30;5.65;;;-0.70;99.90;;;;;;5056011;28;20017;-70
2022/04/04 02:01:20;;;;;;;9.23;6.32;;;-0.70;99.90;;;;;;5056193;28;20163;-70
2022/04/04 02:03:48;;;;;;;8.55;5.25;;;-0.80;99.90;;;;;;5056511;28;20021;-69
2022/04/04 02:06:14;;;;;;;8.93;4.85;;;-0.80;99.90;;;;;;5055801;28;20041;-70
2022/04/04 02:08:42;;;;;;;8.65;5.20;;;-0.80;99.90;;;;;;5056362;28;20014;-70
2022/04/04 02:11:08;;;;;;;10.40;5.55;;;-0.80;99.90;;;;;;5037861;28;20106;-71
2022/04/04 02:13:34;;;;;;;11.20;5.72;;;-0.80;99.90;;;;;;5055654;28;20155;-68
2022/04/04 02:16:01;;;;;;;8.93;5.60;;;-0.80;99.90;;;;;;5055614;28;20076;-69
2022/04/04 02:18:28;;;;;;;11.40;6.35;;;-0.90;99.90;;;;;;5055597;28;20060;-70
2022/04/04 02:20:55;;;;;;;12.43;5.97;;;-0.90;99.90;;;;;;5037601;28;20504;-69
2022/04/04 02:23:20;;;;;;;8.35;5.13;;;-0.80;99.90;;;;;;5050166;28;20055;-70
2022/04/04 02:25:48;;;;;;;10.57;5.38;;;-0.90;99.90;;;;;;5075467;28;20028;-67
2022/04/04 02:28:15;;;;;;;10.23;5.97;;;-0.80;99.90;;;;;;5074192;28;20359;-69
2022/04/04 02:30:41;;;;;;;10.23;6.25;;;-0.80;99.90;;;;;;5075415;28;20054;-69
2022/04/04 02:33:08;;;;;;;8.77;5.55;;;-0.80;99.90;;;;;;5074567;28;20478;-69
2022/04/04 02:35:34;;;;;;;9.45;5.95;;;-0.80;99.90;;;;;;5075310;28;20113;-70
2022/04/04 02:38:00;;;;;;;12.48;6.07;;;-0.80;99.90;;;;;;5075288;28;20452;-70
2022/04/04 02:40:26;;;;;;;9.93;5.50;;;-0.80;99.90;;;;;;5075813;28;20119;-69
2022/04/04 02:42:52;;;;;;;8.27;5.75;;;-0.90;99.90;;;;;;5075230;28;20058;-70
2022/04/04 02:45:18;;;;;;;8.43;5.25;;;-1.00;99.90;;;;;;5073763;28;20024;-69
2022/04/04 02:47:44;;;;;;;9.35;6.30;;;-0.90;99.90;;;;;;5075122;28;20009;-69
2022/04/04 02:50:11;;;;;;;12.02;7.47;;;-0.90;99.90;;;;;;5075333;28;20039;-68
2022/04/04 02:52:37;;;;;;;9.43;5.95;;;-0.90;99.90;;;;;;5075017;28;20025;-69
2022/04/04 02:56:28;;;;;;;10.18;5.30;;;-1.00;99.90;;;;;;5074948;28;20038;-69
2022/04/04 02:57:49;;;;;;;8.32;5.15;;;-1.00;99.90;;;;;;5074613;28;20031;-69
2022/04/04 03:00:17;;;;;;;9.32;5.30;;;-1.00;99.90;;;;;;5075079;28;20021;-69
2022/04/04 03:02:44;;;;;;;9.68;5.10;;;-1.00;99.90;;;;;;5074819;28;20048;-69
2022/04/04 03:05:10;;;;;;;8.30;5.10;;;-1.00;99.90;;;;;;5074617;28;20387;-68
2022/04/04 03:07:35;;;;;;;8.98;5.65;;;-1.00;99.90;;;;;;5074706;28;20021;-70
2022/04/04 03:10:01;;;;;;;9.95;5.70;;;-1.10;99.90;;;;;;5074608;28;20074;-68
2022/04/04 03:12:27;;;;;;;10.20;6.57;;;-1.10;99.90;;;;;;5074590;28;20027;-69
2022/04/04 03:14:52;;;;;;;10.35;5.32;;;-1.10;99.90;;;;;;5074660;28;20031;-69
2022/04/04 03:17:18;;;;;;;10.48;6.05;;;-1.10;99.90;;;;;;5074502;28;20032;-68
2022/04/04 03:19:44;;;;;;;9.02;5.88;;;-1.10;99.90;;;;;;5073107;28;20372;-70
2022/04/04 03:22:10;;;;;;;11.07;6.00;;;-1.10;99.90;;;;;;5074405;28;20033;-68
2022/04/04 03:24:35;;;;;;;9.40;5.40;;;-1.10;99.90;;;;;;5055520;28;20060;-70
2022/04/04 03:27:01;;;;;;;11.55;6.38;;;-1.10;99.90;;;;;;5054853;28;20029;-70
2022/04/04 03:29:27;;;;;;;8.77;5.65;;;-1.10;99.90;;;;;;5054275;28;20430;-71
2022/04/04 03:31:53;;;;;;;8.80;5.00;;;-1.20;99.90;;;;;;5054225;28;20104;-70
2022/04/04 03:34:19;;;;;;;10.10;5.43;;;-1.20;99.90;;;;;;5054414;28;20017;-68
2022/04/04 03:36:47;;;;;;;9.93;5.47;;;-1.20;99.90;;;;;;5054141;28;20021;-69
2022/04/04 03:39:16;;;;;;;9.93;5.47;;;-1.20;99.90;;;;;;5054044;28;20540;-68
2022/04/04 03:41:45;;;;;;;8.30;5.18;;;-1.30;99.90;;;;;;5053986;28;20028;-69
2022/04/04 03:44:11;;;;;;;8.15;5.28;;;-1.30;99.90;;;;;;5053780;28;20108;-70
2022/04/04 03:46:37;;;;;;;8.95;6.00;;;-1.40;99.90;;;;;;5054131;28;20024;-69
2022/04/04 03:49:06;;;;;;;10.07;6.13;;;-1.40;99.90;;;;;;5053903;28;20491;-67
2022/04/04 03:51:32;;;;;;;9.25;6.00;;;-1.40;99.90;;;;;;5053845;28;20494;-69
2022/04/04 03:53:58;;;;;;;10.70;6.80;;;-1.40;99.90;;;;;;5053784;28;20021;-69
2022/04/04 03:56:24;;;;;;;10.73;6.07;;;-1.40;99.90;;;;;;5035888;28;20445;-70
2022/04/04 03:58:52;;;;;;;9.65;5.88;;;-1.40;99.90;;;;;;5053717;28;20021;-69
2022/04/04 04:01:17;;;;;;;10.65;6.45;;;-1.40;99.90;;;;;;5053619;28;20104;-69
2022/04/04 04:03:43;;;;;;;10.23;6.68;;;-1.40;99.90;;;;;;5053634;28;20502;-70
2022/04/04 04:06:11;;;;;;;9.07;5.47;;;-1.40;99.90;;;;;;5054067;28;20029;-68
2022/04/04 04:08:39;;;;;;;11.45;6.65;;;-1.40;99.90;;;;;;5053550;28;20426;-68
2022/04/04 04:11:05;;;;;;;10.90;7.53;;;-1.40;99.90;;;;;;5053418;28;20025;-68
2022/04/04 04:13:31;;;;;;;21.27;14.15;;;-1.40;99.90;;;;;;5053507;28;20083;-69
2022/04/04 04:15:58;;;;;;;15.32;10.52;;;-1.40;99.90;;;;;;5053399;28;20469;-69
2022/04/04 04:18:24;;;;;;;14.35;7.43;;;-1.40;99.90;;;;;;5053359;28;20025;-69
2022/04/04 04:20:50;;;;;;;11.57;6.63;;;-1.40;99.90;;;;;;5053402;28;20036;-69
2022/04/04 04:23:16;;;;;;;9.88;6.80;;;-1.40;99.90;;;;;;5052998;28;20073;-69
2022/04/04 04:25:42;;;;;;;11.95;6.50;;;-1.40;99.90;;;;;;5053237;28;20025;-68
2022/04/04 04:28:09;;;;;;;10.35;6.40;;;-1.40;99.90;;;;;;5053218;28;20435;-71
2022/04/04 04:30:36;;;;;;;12.15;7.63;;;-1.40;99.90;;;;;;5053212;28;20025;-70
2022/04/04 04:33:02;;;;;;;12.73;7.78;;;-1.40;99.90;;;;;;5053196;28;20441;-68
2022/04/04 04:35:28;;;;;;;11.57;6.40;;;-1.40;99.90;;;;;;5053481;28;20029;-70
2022/04/04 04:37:54;;;;;;;9.98;6.65;;;-1.40;99.90;;;;;;5053408;28;20147;-68
2022/04/04 04:40:21;;;;;;;11.80;7.10;;;-1.50;99.90;;;;;;5053138;28;20037;-68
2022/04/04 04:42:48;;;;;;;11.07;7.32;;;-1.60;99.90;;;;;;5053092;28;20024;-69
2022/04/04 04:45:14;;;;;;;10.80;6.60;;;-1.60;99.90;;;;;;5053248;28;20021;-69
2022/04/04 04:47:41;;;;;;;11.98;6.93;;;-1.60;99.90;;;;;;5053317;28;20075;-70
2022/04/04 04:50:07;;;;;;;13.35;10.15;;;-1.60;99.90;;;;;;5053058;28;20025;-68
2022/04/04 04:52:33;;;;;;;14.80;9.88;;;-1.50;99.90;;;;;;5035107;28;20017;-70
2022/04/04 04:55:00;;;;;;;110.60;68.57;;;-1.40;99.90;;;;;;5036368;28;20021;-70
2022/04/04 04:57:26;;;;;;;42.03;27.42;;;-1.40;99.90;;;;;;5057121;28;20029;-69
2022/04/04 04:59:51;;;;;;;13.93;8.38;;;-1.40;99.90;;;;;;5057634;28;20082;-70
2022/04/04 05:02:17;;;;;;;10.55;6.78;;;-1.60;99.90;;;;;;5057036;28;20029;-69
2022/04/04 05:04:43;;;;;;;9.65;6.18;;;-1.80;99.90;;;;;;5056978;28;20028;-68
2022/04/04 05:07:08;;;;;;;10.07;6.35;;;-1.70;99.90;;;;;;5056990;28;20056;-68
2022/04/04 05:09:37;;;;;;;10.70;7.13;;;-1.90;99.90;;;;;;5038994;28;20021;-69
2022/04/04 05:12:03;;;;;;;9.48;6.07;;;-1.80;99.90;;;;;;5056855;28;20112;-68
2022/04/04 05:14:28;;;;;;;9.93;6.30;;;-1.70;99.90;;;;;;5057020;28;20100;-68
2022/04/04 05:16:55;;;;;;;10.88;7.25;;;-1.60;99.90;;;;;;5056791;28;20070;-70
2022/04/04 05:19:22;;;;;;;12.68;8.75;;;-1.60;99.90;;;;;;5038879;28;20029;-69
2022/04/04 05:21:48;;;;;;;14.90;8.68;;;-1.60;99.90;;;;;;5056665;28;20029;-68
2022/04/04 05:24:15;;;;;;;13.68;9.90;;;-1.60;99.90;;;;;;5056439;28;20080;-70
2022/04/04 05:26:41;;;;;;;10.50;7.40;;;-1.60;99.90;;;;;;5056500;28;20032;-70
2022/04/04 05:29:07;;;;;;;17.88;8.77;;;-1.60;99.90;;;;;;5056567;28;20017;-70
2022/04/04 05:31:35;;;;;;;26.60;13.52;;;-1.60;99.90;;;;;;5056531;28;20364;-69
2022/04/04 05:34:04;;;;;;;18.13;11.73;;;-1.60;99.90;;;;;;5056470;28;20510;-69
2022/04/04 05:36:30;;;;;;;16.65;11.90;;;-1.50;99.90;;;;;;5056408;28;20025;-70
2022/04/04 05:38:56;;;;;;;37.47;32.17;;;-1.50;99.90;;;;;;5038480;28;20021;-70
2022/04/04 05:41:22;;;;;;;54.05;45.05;;;-1.40;99.90;;;;;;5056819;28;20035;-70
2022/04/04 05:43:48;;;;;;;23.58;17.58;;;-1.30;99.90;;;;;;5056240;28;20032;-70
2022/04/04 05:46:17;;;;;;;18.13;11.18;;;-1.30;99.90;;;;;;5056092;28;20035;-69
2022/04/04 05:48:44;;;;;;;18.30;10.43;;;-1.20;99.90;;;;;;5038248;28;20017;-70
2022/04/04 05:51:10;;;;;;;13.27;8.75;;;-1.10;99.90;;;;;;5056136;28;20055;-70
2022/04/04 05:53:36;;;;;;;12.55;8.23;;;-1.20;99.90;;;;;;5056108;28;20024;-68
2022/04/04 05:56:02;;;;;;;13.95;7.65;;;-1.20;99.90;;;;;;5056333;28;20029;-69
2022/04/04 05:58:28;;;;;;;14.40;7.57;;;-1.30;99.90;;;;;;5056010;28;20017;-69
2022/04/04 06:00:54;;;;;;;10.90;6.28;;;-1.30;99.90;;;;;;5056530;28;20390;-69
2022/04/04 06:03:20;;;;;;;12.35;6.75;;;-1.30;99.90;;;;;;5055936;28;20031;-69
2022/04/04 06:05:49;;;;;;;12.52;6.18;;;-1.30;99.90;;;;;;5055757;28;20475;-69
2022/04/04 06:08:18;;;;;;;21.80;13.40;;;-1.30;99.90;;;;;;5055805;28;20092;-68
2022/04/04 06:10:47;;;;;;;14.70;8.90;;;-1.20;99.90;;;;;;5056312;28;20021;-68
2022/04/04 06:13:14;;;;;;;27.55;18.23;;;-1.10;99.90;;;;;;5055749;28;20025;-70
2022/04/04 06:15:40;;;;;;;16.45;12.90;;;-1.00;99.90;;;;;;5055795;28;20437;-70
2022/04/04 06:18:08;;;;;;;17.40;13.05;;;-0.80;99.90;;;;;;5055689;28;20055;-69
2022/04/04 06:20:33;;;;;;;12.50;7.60;;;-0.80;99.90;;;;;;5055879;28;20031;-70
2022/04/04 06:22:59;;;;;;;12.93;7.55;;;-0.70;99.90;;;;;;5044314;28;20120;-69
2022/04/04 06:25:24;;;;;;;14.52;7.90;;;-0.50;99.90;;;;;;5075784;28;20054;-70
2022/04/04 06:27:50;;;;;;;13.43;6.75;;;-0.30;99.90;;;;;;5075460;28;20519;-69
2022/04/04 06:30:16;;;;;;;11.20;7.07;;;-0.10;99.90;;;;;;5075461;28;20021;-69
2022/04/04 06:32:43;;;;;;;13.32;6.38;;;0.00;99.90;;;;;;5075448;28;20100;-69
2022/04/04 06:35:10;;;;;;;16.58;7.00;;;0.20;99.90;;;;;;5075408;28;20551;-68
2022/04/04 06:37:37;;;;;;;13.85;7.10;;;0.50;99.90;;;;;;5075293;28;20054;-68
2022/04/04 06:40:04;;;;;;;16.15;7.60;;;0.70;99.90;;;;;;5073971;28;20402;-67
2022/04/04 06:42:31;;;;;;;12.38;6.60;;;0.90;99.90;;;;;;5075522;28;20017;-69
2022/04/04 06:44:58;;;;;;;13.00;9.23;;;1.00;99.90;;;;;;5075077;28;20479;-68
2022/04/04 06:47:24;;;;;;;14.35;10.00;;;1.00;99.90;;;;;;5075087;28;20020;-70
2022/04/04 06:49:52;;;;;;;12.48;7.85;;;1.10;99.90;;;;;;5075060;28;20024;-69
2022/04/04 06:52:18;;;;;;;10.40;6.43;;;1.30;99.90;;;;;;5074284;28;20397;-70
2022/04/04 06:54:44;;;;;;;8.27;5.53;;;3.70;99.90;;;;;;5074801;28;20051;-75
2022/04/04 06:57:10;;;;;;;12.07;5.97;;;7.10;99.90;;;;;;5075785;28;20418;-74
2022/04/04 06:59:35;;;;;;;16.95;9.05;;;9.90;99.90;;;;;;5073951;28;20056;-75
2022/04/04 07:02:01;;;;;;;10.02;7.47;;;11.90;98.30;;;;;;5074471;28;20028;-72
2022/04/04 07:04:27;;;;;;;13.05;7.18;;;13.60;93.20;;;;;;5074778;28;20025;-74
2022/04/04 07:06:52;;;;;;;9.05;7.60;;;15.40;87.20;;;;;;5074647;28;20504;-75
2022/04/04 07:09:18;;;;;;;9.85;7.07;;;16.90;75.80;;;;;;5073829;28;20028;-75
2022/04/04 07:11:44;;;;;;;15.70;8.00;;;18.30;67.90;;;;;;5074395;28;20025;-76
2022/04/04 07:14:10;;;;;;;14.20;7.47;;;16.50;65.30;;;;;;5073286;28;20395;-75
2022/04/04 07:16:36;;;;;;;18.50;16.60;;;14.10;69.20;;;;;;5074679;28;20028;-77
2022/04/04 07:19:02;;;;;;;13.60;11.20;;;12.40;73.60;;;;;;5073500;28;20025;-75
2022/04/04 07:21:28;;;;;;;8.80;6.28;;;11.30;77.40;;;;;;5074054;28;20041;-76
2022/04/04 07:23:54;;;;;;;8.88;6.13;;;10.70;80.70;;;;;;5061383;28;20060;-76
2022/04/04 07:26:21;;;;;;;11.60;6.13;;;10.30;83.30;;;;;;5054035;28;20040;-76
2022/04/04 07:28:47;;;;;;;12.60;6.70;;;10.20;86.00;;;;;;5053941;28;20088;-74
2022/04/04 07:31:17;;;;;;;11.15;8.23;;;10.30;88.10;;;;;;5054182;28;20087;-77
2022/04/04 07:33:43;;;;;;;12.60;9.35;;;10.70;89.20;;;;;;5053861;28;20021;-77
2022/04/04 07:36:10;;;;;;;13.00;8.60;;;11.30;89.90;;;;;;5053784;28;20029;-77
2022/04/04 07:38:37;;;;;;;9.75;7.03;;;12.30;87.30;;;;;;5054052;28;20033;-76
2022/04/04 07:41:02;;;;;;;15.73;8.05;;;12.30;87.00;;;;;;5054015;28;20029;-75
2022/04/04 07:43:28;;;;;;;19.30;7.53;;;12.30;87.30;;;;;;5053981;28;20039;-76
2022/04/04 07:45:54;;;;;;;11.98;6.63;;;12.50;87.40;;;;;;5053688;28;20107;-74
2022/04/04 07:48:19;;;;;;;23.50;9.07;;;12.70;88.10;;;;;;5054109;28;20066;-75
2022/04/04 07:50:45;;;;;;;15.27;9.85;;;13.20;88.30;;;;;;5054094;28;20025;-75
2022/04/04 07:53:12;;;;;;;11.45;6.93;;;14.00;85.80;;;;;;5053534;28;20052;-77
2022/04/04 07:55:38;;;;;;;10.82;6.78;;;14.40;85.30;;;;;;5053902;28;20021;-74
2022/04/04 07:58:04;;;;;;;10.77;5.88;;;14.50;84.60;;;;;;5053168;28;20032;-72
2022/04/04 08:00:30;;;;;;;11.43;7.13;;;15.50;83.40;;;;;;5053707;28;20021;-71
2022/04/04 08:02:56;;;;;;;13.32;7.22;;;17.80;80.30;;;;;;5053760;28;20100;-75
2022/04/04 08:05:21;;;;;;;11.85;7.00;;;22.30;71.40;;;;;;5053654;28;20044;-71
2022/04/04 08:07:48;;;;;;;11.93;7.70;;;24.40;61.00;;;;;;5054208;28;20100;-72
2022/04/04 08:10:15;;;;;;;7.30;3.55;;;23.30;56.70;;;;;;5036049;28;20363;-76
2022/04/04 08:12:41;;;;;;;10.20;4.15;;;24.90;53.20;;;;;;5053122;28;20025;-69
2022/04/04 08:15:08;;;;;;;5.88;2.50;;;25.70;49.90;;;;;;5054265;28;20036;-75
2022/04/04 08:17:34;;;;;;;4.97;2.72;;;26.30;46.80;;;;;;5053728;28;20457;-73
2022/04/04 08:20:01;;;;;;;6.70;3.50;;;24.70;46.60;;;;;;5053455;28;20099;-67
2022/04/04 08:22:27;;;;;;;5.43;2.70;;;22.80;47.20;;;;;;5053467;28;20029;-67
2022/04/04 08:24:52;;;;;;;5.60;2.58;;;21.90;48.50;;;;;;5053996;28;20481;-75
2022/04/04 08:27:18;;;;;;;4.95;2.63;;;21.10;49.90;;;;;;5052873;28;20021;-76
2022/04/04 08:29:44;;;;;;;6.35;3.20;;;21.70;48.60;;;;;;5052486;28;20025;-69
2022/04/04 08:32:10;;;;;;;4.68;3.10;;;22.00;49.30;;;;;;5053838;28;20021;-75
2022/04/04 08:34:36;;;;;;;3.70;2.50;;;24.10;47.00;;;;;;5053559;28;20382;-69
2022/04/04 08:37:02;;;;;;;5.72;3.22;;;25.00;45.70;;;;;;5052782;28;20036;-70
2022/04/04 08:39:28;;;;;;;4.97;2.75;;;26.30;43.50;;;;;;5053723;28;20021;-70
2022/04/04 08:41:58;;;;;;;2.85;2.13;;;24.30;44.30;;;;;;5053246;28;20021;-71
2022/04/04 08:44:24;;;;;;;3.10;2.80;;;22.50;45.50;;;;;;5052712;28;20158;-70
2022/04/04 08:46:51;;;;;;;3.00;2.42;;;21.30;47.60;;;;;;5040514;28;20029;-69
2022/04/04 08:49:17;;;;;;;4.50;2.35;;;20.40;48.00;;;;;;5044941;28;20098;-69
2022/04/04 08:51:43;;;;;;;4.03;2.28;;;20.20;48.60;;;;;;5043891;28;20526;-70
2022/04/04 08:54:09;;;;;;;4.82;2.60;;;20.80;48.30;;;;;;5048729;28;20025;-69
2022/04/04 08:56:35;;;;;;;4.57;2.60;;;22.40;48.00;;;;;;5035360;28;20399;-73
2022/04/04 08:59:00;;;;;;;2.85;2.10;;;24.60;45.60;;;;;;5033376;28;20083;-72
2022/04/04 09:01:28;;;;;;;7.43;3.15;;;23.60;44.30;;;;;;5033892;28;20021;-69
2022/04/04 09:04:05;;;;;;;4.93;2.40;;;23.70;44.20;;;;;;5052201;28;20437;-69
2022/04/04 09:06:52;;;;;;;9.35;3.15;;;24.40;44.70;;;;;;5053012;28;20039;-69
2022/04/04 09:09:36;;;;;;;7.70;2.60;;;27.30;42.20;;;;;;5052734;28;20483;-70
2022/04/04 09:12:06;;;;;;;5.15;2.38;;;26.10;41.90;;;;;;5052630;28;20067;-75
2022/04/04 09:14:36;;;;;;;6.10;2.90;;;24.10;43.20;;;;;;5048503;28;20021;-72
2022/04/04 09:17:02;;;;;;;5.45;2.50;;;22.70;44.60;;;;;;5052760;28;20021;-72
2022/04/04 09:19:30;;;;;;;5.03;2.95;;;21.20;47.20;;;;;;5051844;28;20091;-71
2022/04/04 09:21:57;;;;;;;5.38;3.00;;;21.00;47.30;;;;;;5052765;28;20025;-72
2022/04/04 09:24:44;;;;;;;5.60;2.83;;;19.90;48.20;;;;;;5064093;28;20135;-73
2022/04/04 09:27:16;;;;;;;7.50;4.05;;;19.20;49.10;;;;;;5072669;28;20539;-72
2022/04/04 09:29:42;;;;;;;7.57;3.35;;;18.60;50.40;;;;;;5072994;28;20025;-72
2022/04/04 09:32:12;;;;;;;5.13;3.40;;;18.20;50.90;;;;;;5072698;28;20016;-74
2022/04/04 09:34:54;;;;;;;7.15;3.60;;;17.70;51.60;;;;;;5071352;28;20426;-71
2022/04/04 09:37:22;;;;;;;7.63;3.72;;;17.20;52.70;;;;;;5072319;28;20020;-70
2022/04/04 09:39:50;;;;;;;7.18;3.60;;;17.50;53.30;;;;;;5072950;28;20466;-77
2022/04/04 09:42:17;;;;;;;5.28;3.65;;;18.60;51.40;;;;;;5075768;28;20032;-73
2022/04/04 09:44:56;;;;;;;7.43;3.45;;;20.50;49.50;;;;;;5076363;28;20024;-76
2022/04/04 09:47:23;;;;;;;5.15;3.55;;;24.10;47.10;;;;;;5075877;28;20047;-75
2022/04/04 09:49:48;;;;;;;6.82;4.20;;;26.60;43.90;;;;;;5076252;28;20100;-74
2022/04/04 09:52:14;;;;;;;6.80;4.00;;;27.70;41.40;;;;;;5076439;28;20500;-76
2022/04/04 09:54:42;;;;;;;4.82;3.40;;;26.30;41.70;;;;;;5074913;28;20020;-73
2022/04/04 09:57:12;;;;;;;6.00;3.42;;;25.40;42.60;;;;;;5076125;28;20024;-72
2022/04/04 09:59:38;;;;;;;6.93;3.70;;;26.40;42.80;;;;;;5076355;28;20028;-74
2022/04/04 10:02:05;;;;;;;6.00;4.05;;;27.20;41.80;;;;;;5075264;28;20037;-74
2022/04/04 10:04:32;;;;;;;7.13;4.78;;;26.70;40.70;;;;;;5076217;28;20075;-71
2022/04/04 10:07:01;;;;;;;7.18;4.03;;;25.30;41.60;;;;;;5074507;28;20032;-73
2022/04/04 10:09:26;;;;;;;6.90;4.43;;;23.40;43.20;;;;;;5075940;28;20020;-70
2022/04/04 10:11:53;;;;;;;8.13;4.28;;;22.10;45.00;;;;;;5075295;28;20116;-73
2022/04/04 10:14:18;;;;;;;9.05;4.47;;;20.70;46.70;;;;;;5075707;28;20021;-74
2022/04/04 10:16:45;;;;;;;8.48;4.65;;;19.20;48.70;;;;;;5075763;28;20070;-75
2022/04/04 10:19:11;;;;;;;7.07;4.57;;;18.80;50.00;;;;;;5075360;28;20025;-75
2022/04/04 10:21:37;;;;;;;10.13;6.03;;;19.10;49.90;;;;;;5075198;28;20555;-76
2022/04/04 10:24:07;;;;;;;8.27;5.85;;;19.20;49.70;;;;;;5061495;28;20044;-75
2022/04/04 10:26:35;;;;;;;8.25;5.05;;;19.20;49.90;;;;;;5055433;28;20024;-71
2022/04/04 10:29:13;;;;;;;6.82;4.50;;;20.20;48.80;;;;;;5055514;28;20052;-72
2022/04/04 10:31:49;;;;;;;6.05;4.18;;;21.10;47.20;;;;;;5054947;28;20027;-74
2022/04/04 10:34:17;;;;;;;6.28;4.32;;;21.30;46.80;;;;;;5054811;28;20066;-67
2022/04/04 10:37:08;;;;;;;6.45;4.15;;;22.10;46.00;;;;;;5054598;28;20083;-67
2022/04/04 10:39:45;;;;;;;6.05;4.00;;;22.80;46.00;;;;;;5053612;28;20029;-66
2022/04/04 10:42:23;;;;;;;6.88;4.18;;;22.70;45.70;;;;;;5054364;28;20558;-67
2022/04/04 10:44:50;;;;;;;5.07;3.80;;;23.00;45.50;;;;;;5055082;28;20085;-67
2022/04/04 10:47:23;;;;;;;6.32;3.78;;;23.60;44.70;;;;;;5055147;28;20025;-67
2022/04/04 10:49:49;;;;;;;6.03;3.80;;;23.70;44.00;;;;;;5055623;28;20062;-67
2022/04/04 10:52:22;;;;;;;5.38;3.90;;;23.50;44.20;;;;;;5054142;28;20057;-67
2022/04/04 10:54:48;;;;;;;5.35;3.70;;;23.50;44.60;;;;;;5055524;28;20025;-67
2022/04/04 10:57:18;;;;;;;7.20;3.85;;;23.30;44.50;;;;;;5054943;28;20383;-67
2022/04/04 10:59:48;;;;;;;5.57;3.60;;;23.10;44.90;;;;;;5055185;28;20021;-65
2022/04/04 11:02:18;;;;;;;6.55;4.07;;;22.20;44.90;;;;;;5055700;28;20025;-67
2022/04/04 11:07:41;;;;;;;7.18;4.13;;;21.10;47.30;;;;;;5055318;28;20032;-67
2022/04/04 11:10:09;;;;;;;5.37;3.70;;;20.10;48.50;;;;;;5055107;28;20017;-67
2022/04/04 11:13:00;;;;;;;7.38;4.03;;;19.70;49.30;;;;;;5055201;28;20251;-66
2022/04/04 11:15:48;;;;;;;8.65;3.95;;;19.50;49.40;;;;;;5054526;28;20021;-65
2022/04/04 11:18:14;;;;;;;6.00;3.83;;;19.50;49.40;;;;;;5054837;28;20025;-67
2022/04/04 11:20:49;;;;;;;6.22;4.10;;;19.20;49.70;;;;;;5054756;28;20036;-67
2022/04/04 11:23:17;;;;;;;6.20;4.00;;;18.90;50.60;;;;;;5054216;28;20076;-67
2022/04/04 11:25:48;;;;;;;5.30;3.88;;;18.50;51.10;;;;;;5054574;28;20025;-66
2022/04/04 11:28:17;;;;;;;7.20;4.10;;;18.50;51.10;;;;;;5054893;28;20089;-67
2022/04/04 11:30:43;;;;;;;7.22;3.65;;;18.40;51.70;;;;;;5054849;28;20074;-67
2022/04/04 11:33:17;;;;;;;5.78;3.92;;;18.10;52.70;;;;;;5054254;28;20422;-66
2022/04/04 11:35:44;;;;;;;4.40;3.50;;;18.00;53.20;;;;;;5054249;28;20038;-66
2022/04/04 11:38:11;;;;;;;6.55;3.88;;;17.90;52.80;;;;;;5054475;28;20501;-67
2022/04/04 11:40:39;;;;;;;5.63;3.92;;;18.10;53.20;;;;;;5054123;28;20031;-66
2022/04/04 11:43:09;;;;;;;7.22;4.43;;;18.20;52.80;;;;;;5054355;28;20025;-66
2022/04/04 11:45:37;;;;;;;6.80;3.88;;;18.40;52.80;;;;;;5054535;28;20449;-66
2022/04/04 11:48:14;;;;;;;6.32;3.50;;;17.90;52.60;;;;;;5054011;28;20025;-67
2022/04/04 11:50:42;;;;;;;9.52;5.80;;;17.50;53.10;;;;;;5054292;28;20475;-67
2022/04/04 11:53:12;;;;;;;7.43;5.10;;;17.30;53.30;;;;;;5053917;28;20025;-67
2022/04/04 11:55:41;;;;;;;6.30;3.90;;;17.10;53.40;;;;;;5053882;28;20021;-67
2022/04/04 11:58:15;;;;;;;7.97;4.43;;;16.90;54.30;;;;;;5054327;28;20029;-65
2022/04/04 12:00:55;;;;;;;5.88;3.92;;;16.60;55.10;;;;;;5054080;28;20398;-67
2022/04/04 12:03:23;;;;;;;7.07;4.35;;;16.60;55.00;;;;;;5053624;28;20147;-66
2022/04/04 12:05:50;;;;;;;6.38;4.03;;;16.50;54.80;;;;;;5052905;28;20029;-77
2022/04/04 12:08:18;;;;;;;8.25;4.15;;;16.70;54.60;;;;;;5053863;28;20490;-74
2022/04/04 12:10:48;;;;;;;5.07;3.58;;;17.00;54.20;;;;;;5053574;28;20032;-74
2022/04/04 12:13:19;;;;;;;5.50;3.85;;;17.20;54.50;;;;;;5053865;28;20100;-75
2022/04/04 12:15:47;;;;;;;7.50;4.10;;;17.60;53.70;;;;;;5053544;28;20044;-75
2022/04/04 12:18:21;;;;;;;5.93;3.92;;;17.50;53.50;;;;;;5052619;28;20448;-75
2022/04/04 12:20:48;;;;;;;7.45;4.35;;;17.50;54.20;;;;;;5053530;28;20402;-75
2022/04/04 12:26:04;;;;;;;5.97;4.00;;;17.40;54.00;;;;;;5033660;28;20498;-75
2022/04/04 12:28:35;;;;;;;6.70;3.92;;;17.60;53.90;;;;;;5027499;28;20025;-75
2022/04/04 12:31:21;;;;;;;8.23;4.80;;;17.10;54.70;;;;;;5053244;28;20033;-75
2022/04/04 12:34:10;;;;;;;8.38;4.47;;;16.80;54.60;;;;;;5053540;28;20021;-74
2022/04/04 12:36:40;;;;;;;7.68;4.70;;;16.60;54.80;;;;;;5053778;28;20076;-70
2022/04/04 12:39:08;;;;;;;8.85;4.72;;;16.30;55.90;;;;;;5052459;28;20029;-69
2022/04/04 12:41:43;;;;;;;7.20;4.40;;;16.40;55.70;;;;;;5052998;28;20060;-70
2022/04/04 12:44:10;;;;;;;7.28;4.47;;;16.10;57.00;;;;;;5053394;28;20491;-69
2022/04/04 12:46:36;;;;;;;11.30;5.75;;;16.10;56.50;;;;;;5053327;28;20478;-69
2022/04/04 12:49:19;;;;;;;15.82;9.25;;;16.00;56.40;;;;;;5052991;28;20033;-69
2022/04/04 12:52:06;;;;;;;12.88;8.27;;;15.80;57.30;;;;;;5052844;28;20499;-69